sensor_id;sensor_type;location;lat;lon;timestamp;pressure;altitude;pressure_sealevel;temperature;humidity
64336;BME280;50672;53.362;-6.240;2023-04-05T00:00:57;101855.34;;;12.33;75.08
64336;BME280;50672;53.362;-6.240;2023-04-05T00:03:24;101832.97;;;12.29;75.33
64336;BME280;50672;53.362;-6.240;2023-04-05T00:05:51;101852.72;;;12.23;75.02
64336;BME280;50672;53.362;-6.240;2023-04-05T00:08:20;101839.91;;;12.23;74.99
64336;BME280;50672;53.362;-6.240;2023-04-05T00:10:52;101829.88;;;12.24;75.19
64336;BME280;50672;53.362;-6.240;2023-04-05T00:13:20;101820.66;;;12.25;74.53
64336;BME280;50672;53.362;-6.240;2023-04-05T00:15:47;101825.94;;;12.26;74.23
64336;BME280;50672;53.362;-6.240;2023-04-05T00:18:15;101826.28;;;12.23;74.31
64336;BME280;50672;53.362;-6.240;2023-04-05T00:20:52;101820.81;;;12.23;74.04
64336;BME280;50672;53.362;-6.240;2023-04-05T00:23:19;101808.88;;;12.24;73.88
64336;BME280;50672;53.362;-6.240;2023-04-05T00:25:47;101820.34;;;12.28;73.92
64336;BME280;50672;53.362;-6.240;2023-04-05T00:28:14;101813.84;;;12.29;73.96
64336;BME280;50672;53.362;-6.240;2023-04-05T00:30:41;101824.59;;;12.30;73.37
64336;BME280;50672;53.362;-6.240;2023-04-05T00:33:08;101820.69;;;12.33;73.29
64336;BME280;50672;53.362;-6.240;2023-04-05T00:35:35;101817.97;;;12.33;73.15
64336;BME280;50672;53.362;-6.240;2023-04-05T00:38:01;101812.28;;;12.26;72.97
64336;BME280;50672;53.362;-6.240;2023-04-05T00:40:28;101803.59;;;12.23;72.94
64336;BME280;50672;53.362;-6.240;2023-04-05T00:42:55;101805.59;;;12.21;73.26
64336;BME280;50672;53.362;-6.240;2023-04-05T00:45:22;101788.22;;;12.22;73.13
64336;BME280;50672;53.362;-6.240;2023-04-05T00:47:48;101781.19;;;12.19;73.15
64336;BME280;50672;53.362;-6.240;2023-04-05T00:50:16;101791.94;;;12.21;73.14
64336;BME280;50672;53.362;-6.240;2023-04-05T00:52:43;101789.78;;;12.24;72.79
64336;BME280;50672;53.362;-6.240;2023-04-05T00:55:10;101782.25;;;12.26;73.05
64336;BME280;50672;53.362;-6.240;2023-04-05T00:57:37;101787.72;;;12.26;73.08
64336;BME280;50672;53.362;-6.240;2023-04-05T01:00:07;101784.84;;;12.28;73.05
64336;BME280;50672;53.362;-6.240;2023-04-05T01:02:54;101785.38;;;12.31;72.86
64336;BME280;50672;53.362;-6.240;2023-04-05T01:05:35;101789.13;;;12.30;73.00
64336;BME280;50672;53.362;-6.240;2023-04-05T01:08:34;101780.75;;;12.32;72.75
64336;BME280;50672;53.362;-6.240;2023-04-05T01:11:04;101773.78;;;12.29;72.78
64336;BME280;50672;53.362;-6.240;2023-04-05T01:13:32;101773.59;;;12.31;72.69
64336;BME280;50672;53.362;-6.240;2023-04-05T01:15:59;101766.97;;;12.34;72.87
64336;BME280;50672;53.362;-6.240;2023-04-05T01:18:26;101767.97;;;12.33;73.09
64336;BME280;50672;53.362;-6.240;2023-04-05T01:23:54;101761.84;;;12.39;72.61
64336;BME280;50672;53.362;-6.240;2023-04-05T01:35:10;101773.50;;;12.41;72.80
64336;BME280;50672;53.362;-6.240;2023-04-05T01:37:38;101763.56;;;12.40;72.60
64336;BME280;50672;53.362;-6.240;2023-04-05T01:40:06;101759.47;;;12.36;72.53
64336;BME280;50672;53.362;-6.240;2023-04-05T01:42:34;101764.38;;;12.32;72.70
64336;BME280;50672;53.362;-6.240;2023-04-05T01:45:01;101765.94;;;12.35;72.51
64336;BME280;50672;53.362;-6.240;2023-04-05T01:47:30;101760.16;;;12.38;72.39
64336;BME280;50672;53.362;-6.240;2023-04-05T01:49:56;101752.81;;;12.38;72.66
64336;BME280;50672;53.362;-6.240;2023-04-05T01:52:23;101763.75;;;12.38;72.43
64336;BME280;50672;53.362;-6.240;2023-04-05T01:54:50;101759.28;;;12.37;72.34
64336;BME280;50672;53.362;-6.240;2023-04-05T01:57:17;101762.03;;;12.37;72.78
64336;BME280;50672;53.362;-6.240;2023-04-05T01:59:43;101754.34;;;12.33;72.74
64336;BME280;50672;53.362;-6.240;2023-04-05T02:02:10;101750.88;;;12.30;72.66
64336;BME280;50672;53.362;-6.240;2023-04-05T02:04:37;101741.31;;;12.26;72.66
64336;BME280;50672;53.362;-6.240;2023-04-05T02:07:04;101737.06;;;12.24;72.77
64336;BME280;50672;53.362;-6.240;2023-04-05T02:09:31;101729.00;;;12.22;72.95
64336;BME280;50672;53.362;-6.240;2023-04-05T02:11:57;101722.19;;;12.18;72.66
64336;BME280;50672;53.362;-6.240;2023-04-05T02:14:24;101729.50;;;12.18;72.90
64336;BME280;50672;53.362;-6.240;2023-04-05T02:16:51;101732.41;;;12.16;72.86
64336;BME280;50672;53.362;-6.240;2023-04-05T02:19:22;101722.50;;;12.15;72.85
64336;BME280;50672;53.362;-6.240;2023-04-05T02:21:49;101726.09;;;12.16;73.08
64336;BME280;50672;53.362;-6.240;2023-04-05T02:24:18;101727.78;;;12.17;72.94
64336;BME280;50672;53.362;-6.240;2023-04-05T02:26:45;101719.75;;;12.15;72.92
64336;BME280;50672;53.362;-6.240;2023-04-05T02:29:12;101713.63;;;12.13;73.18
64336;BME280;50672;53.362;-6.240;2023-04-05T02:31:39;101714.63;;;12.12;72.98
64336;BME280;50672;53.362;-6.240;2023-04-05T02:34:06;101711.22;;;12.10;73.20
64336;BME280;50672;53.362;-6.240;2023-04-05T02:36:34;101704.06;;;12.09;73.24
64336;BME280;50672;53.362;-6.240;2023-04-05T02:39:02;101701.47;;;12.07;73.23
64336;BME280;50672;53.362;-6.240;2023-04-05T02:41:30;101698.59;;;12.09;73.14
64336;BME280;50672;53.362;-6.240;2023-04-05T02:43:56;101692.59;;;12.05;73.44
64336;BME280;50672;53.362;-6.240;2023-04-05T02:46:24;101690.72;;;12.06;73.51
64336;BME280;50672;53.362;-6.240;2023-04-05T02:48:51;101691.91;;;12.03;73.46
64336;BME280;50672;53.362;-6.240;2023-04-05T02:51:18;101691.91;;;12.03;73.47
64336;BME280;50672;53.362;-6.240;2023-04-05T02:53:45;101692.59;;;12.05;73.74
64336;BME280;50672;53.362;-6.240;2023-04-05T02:56:11;101689.00;;;12.05;73.58
64336;BME280;50672;53.362;-6.240;2023-04-05T02:58:39;101688.84;;;12.06;73.58
64336;BME280;50672;53.362;-6.240;2023-04-05T03:01:09;101688.84;;;12.06;73.90
64336;BME280;50672;53.362;-6.240;2023-04-05T03:03:36;101687.13;;;12.05;74.02
64336;BME280;50672;53.362;-6.240;2023-04-05T03:06:05;101684.41;;;12.05;73.82
64336;BME280;50672;53.362;-6.240;2023-04-05T03:08:37;101681.66;;;12.05;73.95
64336;BME280;50672;53.362;-6.240;2023-04-05T03:11:04;101674.53;;;12.04;74.17
64336;BME280;50672;53.362;-6.240;2023-04-05T03:13:32;101681.00;;;12.03;74.12
64336;BME280;50672;53.362;-6.240;2023-04-05T03:15:59;101675.69;;;12.02;74.30
64336;BME280;50672;53.362;-6.240;2023-04-05T03:18:26;101668.84;;;11.98;74.11
64336;BME280;50672;53.362;-6.240;2023-04-05T03:20:55;101669.19;;;11.94;74.38
64336;BME280;50672;53.362;-6.240;2023-04-05T03:23:24;101664.00;;;11.91;74.36
64336;BME280;50672;53.362;-6.240;2023-04-05T03:25:59;101668.63;;;11.91;74.50
64336;BME280;50672;53.362;-6.240;2023-04-05T03:28:29;101667.75;;;11.90;74.67
64336;BME280;50672;53.362;-6.240;2023-04-05T03:30:58;101666.72;;;11.91;74.67
64336;BME280;50672;53.362;-6.240;2023-04-05T03:33:24;101662.84;;;11.94;75.16
64336;BME280;50672;53.362;-6.240;2023-04-05T03:35:51;101664.72;;;11.93;75.20
64336;BME280;50672;53.362;-6.240;2023-04-05T03:38:18;101647.63;;;11.91;74.84
64336;BME280;50672;53.362;-6.240;2023-04-05T03:40:45;101657.41;;;11.94;75.54
64336;BME280;50672;53.362;-6.240;2023-04-05T03:43:12;101651.94;;;11.94;75.52
64336;BME280;50672;53.362;-6.240;2023-04-05T03:45:39;101661.00;;;11.94;75.56
64336;BME280;50672;53.362;-6.240;2023-04-05T03:48:06;101656.22;;;11.96;75.67
64336;BME280;50672;53.362;-6.240;2023-04-05T03:50:33;101652.47;;;11.98;75.53
64336;BME280;50672;53.362;-6.240;2023-04-05T03:53:00;101654.16;;;11.99;75.77
64336;BME280;50672;53.362;-6.240;2023-04-05T03:55:26;101654.16;;;11.99;75.61
64336;BME280;50672;53.362;-6.240;2023-04-05T03:57:53;101652.47;;;11.98;75.60
64336;BME280;50672;53.362;-6.240;2023-04-05T04:00:20;101646.00;;;11.99;75.65
64336;BME280;50672;53.362;-6.240;2023-04-05T04:02:49;101638.84;;;11.98;75.93
64336;BME280;50672;53.362;-6.240;2023-04-05T04:05:18;101646.16;;;11.97;76.29
64336;BME280;50672;53.362;-6.240;2023-04-05T04:07:46;101643.41;;;11.97;76.18
64336;BME280;50672;53.362;-6.240;2023-04-05T04:10:15;101639.53;;;12.00;76.43
64336;BME280;50672;53.362;-6.240;2023-04-05T04:12:45;101639.84;;;11.96;76.32
64336;BME280;50672;53.362;-6.240;2023-04-05T04:15:12;101646.16;;;11.97;76.71
64336;BME280;50672;53.362;-6.240;2023-04-05T04:17:39;101645.31;;;11.96;76.70
64336;BME280;50672;53.362;-6.240;2023-04-05T04:20:06;101646.16;;;11.97;76.94
64336;BME280;50672;53.362;-6.240;2023-04-05T04:22:37;101646.16;;;11.97;76.85
64336;BME280;50672;53.362;-6.240;2023-04-05T04:25:10;101642.25;;;12.00;76.84
64336;BME280;50672;53.362;-6.240;2023-04-05T04:27:40;101641.75;;;11.96;77.01
64336;BME280;50672;53.362;-6.240;2023-04-05T04:30:10;101641.91;;;11.94;77.36
64336;BME280;50672;53.362;-6.240;2023-04-05T04:32:37;101646.31;;;11.95;77.20
64336;BME280;50672;53.362;-6.240;2023-04-05T04:35:26;101641.03;;;11.94;77.42
64336;BME280;50672;53.362;-6.240;2023-04-05T04:38:00;101636.72;;;11.91;77.60
64336;BME280;50672;53.362;-6.240;2023-04-05T04:40:38;101635.03;;;11.90;77.67
64336;BME280;50672;53.362;-6.240;2023-04-05T04:43:09;101638.06;;;11.87;77.66
64336;BME280;50672;53.362;-6.240;2023-04-05T04:45:40;101634.31;;;11.88;77.91
64336;BME280;50672;53.362;-6.240;2023-04-05T04:48:07;101628.19;;;11.86;78.00
64336;BME280;50672;53.362;-6.240;2023-04-05T04:50:34;101629.88;;;11.87;78.24
64336;BME280;50672;53.362;-6.240;2023-04-05T04:53:01;101635.31;;;11.87;78.30
64336;BME280;50672;53.362;-6.240;2023-04-05T04:55:28;101629.88;;;11.87;78.09
64336;BME280;50672;53.362;-6.240;2023-04-05T04:57:55;101627.16;;;11.87;78.37
64336;BME280;50672;53.362;-6.240;2023-04-05T05:00:23;101624.41;;;11.87;78.50
64336;BME280;50672;53.362;-6.240;2023-04-05T05:02:54;101617.09;;;11.88;78.65
64336;BME280;50672;53.362;-6.240;2023-04-05T05:05:21;101624.13;;;11.90;78.57
64336;BME280;50672;53.362;-6.240;2023-04-05T05:07:48;101620.34;;;11.91;78.41
64336;BME280;50672;53.362;-6.240;2023-04-05T05:10:16;101615.59;;;11.93;78.62
64336;BME280;50672;53.362;-6.240;2023-04-05T05:12:44;101614.63;;;11.94;78.68
64336;BME280;50672;53.362;-6.240;2023-04-05T05:15:11;101607.41;;;11.93;78.60
64336;BME280;50672;53.362;-6.240;2023-04-05T05:17:38;101607.41;;;11.93;78.73
64336;BME280;50672;53.362;-6.240;2023-04-05T05:20:06;101603.72;;;11.94;78.93
64336;BME280;50672;53.362;-6.240;2023-04-05T05:22:37;101605.41;;;11.95;78.82
64336;BME280;50672;53.362;-6.240;2023-04-05T05:25:05;101596.19;;;11.96;78.83
64336;BME280;50672;53.362;-6.240;2023-04-05T05:27:32;101598.25;;;11.94;78.93
64336;BME280;50672;53.362;-6.240;2023-04-05T05:29:59;101595.34;;;11.96;78.79
64336;BME280;50672;53.362;-6.240;2023-04-05T05:32:26;101586.28;;;11.95;78.86
64336;BME280;50672;53.362;-6.240;2023-04-05T05:34:54;101596.03;;;11.98;78.94
64336;BME280;50672;53.362;-6.240;2023-04-05T05:37:28;101590.41;;;12.00;78.74
64336;BME280;50672;53.362;-6.240;2023-04-05T05:39:55;101594.84;;;12.01;78.83
64336;BME280;50672;53.362;-6.240;2023-04-05T05:42:22;101602.03;;;12.02;78.88
64336;BME280;50672;53.362;-6.240;2023-04-05T05:44:49;101600.97;;;12.03;78.97
64336;BME280;50672;53.362;-6.240;2023-04-05T05:47:16;101593.84;;;12.02;78.79
64336;BME280;50672;53.362;-6.240;2023-04-05T05:49:45;101604.59;;;12.03;79.04
64336;BME280;50672;53.362;-6.240;2023-04-05T05:52:13;101600.97;;;12.03;79.06
64336;BME280;50672;53.362;-6.240;2023-04-05T05:54:40;101591.78;;;12.04;79.32
64336;BME280;50672;53.362;-6.240;2023-04-05T05:57:07;101607.81;;;12.07;79.02
64336;BME280;50672;53.362;-6.240;2023-04-05T05:59:33;101600.50;;;12.07;79.06
64336;BME280;50672;53.362;-6.240;2023-04-05T06:02:01;101599.63;;;12.07;79.02
64336;BME280;50672;53.362;-6.240;2023-04-05T06:04:30;101602.38;;;12.07;79.44
64336;BME280;50672;53.362;-6.240;2023-04-05T06:06:57;101594.19;;;12.07;79.30
64336;BME280;50672;53.362;-6.240;2023-04-05T06:09:24;101601.53;;;12.06;79.14
64336;BME280;50672;53.362;-6.240;2023-04-05T06:11:52;101594.19;;;12.07;79.29
64336;BME280;50672;53.362;-6.240;2023-04-05T06:14:23;101593.88;;;12.10;79.58
64336;BME280;50672;53.362;-6.240;2023-04-05T06:16:51;101602.56;;;12.13;79.43
64336;BME280;50672;53.362;-6.240;2023-04-05T06:19:18;101596.78;;;12.17;79.17
64336;BME280;50672;53.362;-6.240;2023-04-05T06:21:45;101590.31;;;12.18;79.49
64336;BME280;50672;53.362;-6.240;2023-04-05T06:24:12;101591.84;;;12.20;79.13
64336;BME280;50672;53.362;-6.240;2023-04-05T06:26:39;101596.81;;;12.25;79.60
64336;BME280;50672;53.362;-6.240;2023-04-05T06:29:05;101593.91;;;12.26;79.38
64336;BME280;50672;53.362;-6.240;2023-04-05T06:31:34;101586.25;;;12.30;79.32
64336;BME280;50672;53.362;-6.240;2023-04-05T06:34:02;101585.06;;;12.33;79.42
64336;BME280;50672;53.362;-6.240;2023-04-05T06:36:29;101588.63;;;12.33;79.21
64336;BME280;50672;53.362;-6.240;2023-04-05T06:38:57;101587.63;;;12.34;79.50
64336;BME280;50672;53.362;-6.240;2023-04-05T06:41:25;101588.47;;;12.35;79.17
64336;BME280;50672;53.362;-6.240;2023-04-05T06:43:53;101590.91;;;12.38;79.15
64336;BME280;50672;53.362;-6.240;2023-04-05T06:46:20;101579.81;;;12.39;79.12
64336;BME280;50672;53.362;-6.240;2023-04-05T06:48:47;101580.13;;;12.44;79.54
64336;BME280;50672;53.362;-6.240;2023-04-05T06:51:15;101580.66;;;12.48;79.65
64336;BME280;50672;53.362;-6.240;2023-04-05T06:53:42;101577.59;;;12.51;79.25
64336;BME280;50672;53.362;-6.240;2023-04-05T06:56:09;101577.25;;;12.54;79.44
64336;BME280;50672;53.362;-6.240;2023-04-05T06:58:36;101576.59;;;12.60;79.00
64336;BME280;50672;53.362;-6.240;2023-04-05T07:01:04;101581.72;;;12.63;78.95
64336;BME280;50672;53.362;-6.240;2023-04-05T07:03:31;101579.34;;;12.69;79.27
64336;BME280;50672;53.362;-6.240;2023-04-05T07:05:58;101569.78;;;12.73;78.90
64336;BME280;50672;53.362;-6.240;2023-04-05T07:08:27;101576.63;;;12.77;78.81
64336;BME280;50672;53.362;-6.240;2023-04-05T07:10:54;101576.94;;;12.82;79.09
64336;BME280;50672;53.362;-6.240;2023-04-05T07:13:22;101580.38;;;12.84;78.48
64336;BME280;50672;53.362;-6.240;2023-04-05T07:15:50;101572.66;;;12.88;78.61
64336;BME280;50672;53.362;-6.240;2023-04-05T07:18:18;101577.97;;;12.89;78.65
64336;BME280;50672;53.362;-6.240;2023-04-05T07:20:47;101580.38;;;12.92;78.58
64336;BME280;50672;53.362;-6.240;2023-04-05T07:23:14;101572.19;;;12.92;78.17
64336;BME280;50672;53.362;-6.240;2023-04-05T07:25:42;101574.56;;;12.95;78.31
64336;BME280;50672;53.362;-6.240;2023-04-05T07:28:09;101574.56;;;12.95;78.22
64336;BME280;50672;53.362;-6.240;2023-04-05T07:30:36;101571.66;;;12.97;78.24
64336;BME280;50672;53.362;-6.240;2023-04-05T07:33:03;101572.31;;;12.99;78.17
64336;BME280;50672;53.362;-6.240;2023-04-05T07:35:30;101569.44;;;13.01;77.91
64336;BME280;50672;53.362;-6.240;2023-04-05T07:37:57;101572.19;;;13.01;77.86
64336;BME280;50672;53.362;-6.240;2023-04-05T07:40:24;101570.13;;;13.03;77.75
64336;BME280;50672;53.362;-6.240;2023-04-05T07:42:51;101566.34;;;13.04;77.89
64336;BME280;50672;53.362;-6.240;2023-04-05T07:45:18;101564.28;;;13.06;77.83
64336;BME280;50672;53.362;-6.240;2023-04-05T07:47:45;101568.56;;;13.08;77.84
64336;BME280;50672;53.362;-6.240;2023-04-05T07:50:12;101566.34;;;13.12;77.75
64336;BME280;50672;53.362;-6.240;2023-04-05T07:52:41;101566.19;;;13.13;77.62
64336;BME280;50672;53.362;-6.240;2023-04-05T07:55:08;101561.56;;;13.22;77.63
64336;BME280;50672;53.362;-6.240;2023-04-05T07:57:36;101556.06;;;13.30;77.41
64336;BME280;50672;53.362;-6.240;2023-04-05T08:00:04;101553.34;;;13.39;77.42
64336;BME280;50672;53.362;-6.240;2023-04-05T08:02:36;101556.91;;;13.47;77.25
64336;BME280;50672;53.362;-6.240;2023-04-05T08:05:04;101553.50;;;13.54;76.76
64336;BME280;50672;53.362;-6.240;2023-04-05T08:07:30;101550.75;;;13.62;76.96
64336;BME280;50672;53.362;-6.240;2023-04-05T08:09:57;101546.44;;;13.67;76.85
64336;BME280;50672;53.362;-6.240;2023-04-05T08:12:26;101545.91;;;13.72;76.43
64336;BME280;50672;53.362;-6.240;2023-04-05T08:14:52;101546.06;;;13.79;76.50
64336;BME280;50672;53.362;-6.240;2023-04-05T08:17:20;101550.63;;;13.87;76.24
64336;BME280;50672;53.362;-6.240;2023-04-05T08:19:46;101552.66;;;13.93;75.84
64336;BME280;50672;53.362;-6.240;2023-04-05T08:22:14;101546.28;;;14.00;75.97
64336;BME280;50672;53.362;-6.240;2023-04-05T08:24:43;101541.13;;;14.06;75.72
64336;BME280;50672;53.362;-6.240;2023-04-05T08:27:11;101539.38;;;14.13;75.23
64336;BME280;50672;53.362;-6.240;2023-04-05T08:29:37;101538.31;;;14.22;75.50
64336;BME280;50672;53.362;-6.240;2023-04-05T08:32:04;101534.84;;;14.28;75.03
64336;BME280;50672;53.362;-6.240;2023-04-05T08:34:31;101536.38;;;14.31;74.71
64336;BME280;50672;53.362;-6.240;2023-04-05T08:36:59;101545.59;;;14.30;74.48
64336;BME280;50672;53.362;-6.240;2023-04-05T08:39:26;101547.97;;;14.33;74.87
64336;BME280;50672;53.362;-6.240;2023-04-05T08:42:03;101546.59;;;14.37;74.57
64336;BME280;50672;53.362;-6.240;2023-04-05T08:44:35;101540.94;;;14.39;74.32
64336;BME280;50672;53.362;-6.240;2023-04-05T08:47:02;101543.97;;;14.44;74.39
64336;BME280;50672;53.362;-6.240;2023-04-05T08:49:29;101544.16;;;14.42;73.85
64336;BME280;50672;53.362;-6.240;2023-04-05T08:51:57;101542.25;;;14.43;74.32
64336;BME280;50672;53.362;-6.240;2023-04-05T08:54:45;101544.16;;;14.42;73.88
64336;BME280;50672;53.362;-6.240;2023-04-05T08:57:55;101540.22;;;14.45;74.08
64336;BME280;50672;53.362;-6.240;2023-04-05T09:00:26;101543.78;;;14.45;73.60
64336;BME280;50672;53.362;-6.240;2023-04-05T09:02:55;101545.69;;;14.45;73.86
64336;BME280;50672;53.362;-6.240;2023-04-05T09:05:23;101544.66;;;14.46;73.87
64336;BME280;50672;53.362;-6.240;2023-04-05T09:07:51;101540.72;;;14.48;73.63
64336;BME280;50672;53.362;-6.240;2023-04-05T09:10:19;101541.97;;;14.61;73.74
64336;BME280;50672;53.362;-6.240;2023-04-05T09:12:47;101545.00;;;14.74;73.59
64336;BME280;50672;53.362;-6.240;2023-04-05T09:15:19;101548.81;;;14.88;73.43
64336;BME280;50672;53.362;-6.240;2023-04-05T09:17:49;101544.41;;;15.02;72.87
64336;BME280;50672;53.362;-6.240;2023-04-05T09:20:18;101544.16;;;15.12;72.84
64336;BME280;50672;53.362;-6.240;2023-04-05T09:22:45;101539.22;;;15.22;72.57
64336;BME280;50672;53.362;-6.240;2023-04-05T09:27:58;101524.97;;;15.27;71.91
64336;BME280;50672;53.362;-6.240;2023-04-05T09:30:26;101524.97;;;15.27;71.69
64336;BME280;50672;53.362;-6.240;2023-04-05T09:32:56;101535.84;;;15.20;71.29
64336;BME280;50672;53.362;-6.240;2023-04-05T09:35:25;101536.75;;;15.12;71.15
64336;BME280;50672;53.362;-6.240;2023-04-05T09:37:58;101548.94;;;15.10;70.89
64336;BME280;50672;53.362;-6.240;2023-04-05T09:40:45;101548.78;;;15.11;70.86
64336;BME280;50672;53.362;-6.240;2023-04-05T09:43:34;101542.69;;;15.01;70.92
64336;BME280;50672;53.362;-6.240;2023-04-05T09:46:04;101539.78;;;15.02;70.97
64336;BME280;50672;53.362;-6.240;2023-04-05T09:48:49;101542.03;;;14.99;70.79
64336;BME280;50672;53.362;-6.240;2023-04-05T09:51:17;101540.72;;;14.95;70.90
64336;BME280;50672;53.362;-6.240;2023-04-05T09:56:25;101540.03;;;14.93;70.47
64336;BME280;50672;53.362;-6.240;2023-04-05T09:58:52;101535.75;;;14.90;70.54
64336;BME280;50672;53.362;-6.240;2023-04-05T10:01:29;101537.97;;;14.95;70.52
64336;BME280;50672;53.362;-6.240;2023-04-05T10:03:57;101547.72;;;14.97;70.45
64336;BME280;50672;53.362;-6.240;2023-04-05T10:06:43;101546.13;;;15.03;70.35
64336;BME280;50672;53.362;-6.240;2023-04-05T10:09:10;101545.00;;;15.12;70.45
64336;BME280;50672;53.362;-6.240;2023-04-05T10:11:41;101534.03;;;15.27;69.99
64336;BME280;50672;53.362;-6.240;2023-04-05T10:14:10;101541.34;;;15.50;69.83
64336;BME280;50672;53.362;-6.240;2023-04-05T10:16:43;101542.00;;;15.67;70.00
64336;BME280;50672;53.362;-6.240;2023-04-05T10:19:26;101539.34;;;15.73;69.54
64336;BME280;50672;53.362;-6.240;2023-04-05T10:21:59;101540.81;;;15.84;69.11
64336;BME280;50672;53.362;-6.240;2023-04-05T10:24:37;101536.63;;;16.03;69.09
64336;BME280;50672;53.362;-6.240;2023-04-05T10:27:23;101535.91;;;16.16;68.70
64336;BME280;50672;53.362;-6.240;2023-04-05T10:30:07;101532.66;;;16.28;68.36
64336;BME280;50672;53.362;-6.240;2023-04-05T10:35:30;101527.22;;;16.56;67.64
64336;BME280;50672;53.362;-6.240;2023-04-05T10:38:11;101527.50;;;16.61;67.11
64336;BME280;50672;53.362;-6.240;2023-04-05T10:40:45;101533.41;;;16.58;66.67
64336;BME280;50672;53.362;-6.240;2023-04-05T10:43:20;101524.50;;;16.56;66.32
64336;BME280;50672;53.362;-6.240;2023-04-05T10:45:51;101518.03;;;16.64;66.21
64336;BME280;50672;53.362;-6.240;2023-04-05T10:48:43;101520.56;;;16.65;65.76
64336;BME280;50672;53.362;-6.240;2023-04-05T10:51:11;101522.28;;;16.66;65.47
64336;BME280;50672;53.362;-6.240;2023-04-05T10:53:39;101512.81;;;16.75;65.25
64336;BME280;50672;53.362;-6.240;2023-04-05T10:56:07;101514.41;;;16.85;65.18
64336;BME280;50672;53.362;-6.240;2023-04-05T10:58:35;101512.06;;;16.82;64.95
64336;BME280;50672;53.362;-6.240;2023-04-05T11:01:03;101512.84;;;16.97;64.89
64336;BME280;50672;53.362;-6.240;2023-04-05T11:03:50;101516.53;;;17.11;64.40
64336;BME280;50672;53.362;-6.240;2023-04-05T11:06:19;101506.53;;;17.32;64.53
64336;BME280;50672;53.362;-6.240;2023-04-05T11:08:48;101514.66;;;17.47;63.77
64336;BME280;50672;53.362;-6.240;2023-04-05T11:11:17;101515.63;;;17.67;63.69
64336;BME280;50672;53.362;-6.240;2023-04-05T11:17:23;101507.38;;;18.16;62.85
64336;BME280;50672;53.362;-6.240;2023-04-05T11:19:51;101510.34;;;18.27;62.21
64336;BME280;50672;53.362;-6.240;2023-04-05T11:22:26;101509.97;;;18.37;61.94
64336;BME280;50672;53.362;-6.240;2023-04-05T11:25:00;101495.75;;;18.40;61.57
64336;BME280;50672;53.362;-6.240;2023-04-05T11:27:34;101498.97;;;18.51;61.08
64336;BME280;50672;53.362;-6.240;2023-04-05T11:30:04;101495.75;;;18.27;60.63
64336;BME280;50672;53.362;-6.240;2023-04-05T11:32:39;101499.47;;;17.99;60.23
64336;BME280;50672;53.362;-6.240;2023-04-05T11:35:15;101497.47;;;17.80;60.30
64336;BME280;50672;53.362;-6.240;2023-04-05T11:40:30;101493.50;;;17.54;60.15
64336;BME280;50672;53.362;-6.240;2023-04-05T11:43:08;101487.41;;;17.58;60.51
64336;BME280;50672;53.362;-6.240;2023-04-05T11:45:38;101488.72;;;17.63;60.60
64336;BME280;50672;53.362;-6.240;2023-04-05T11:48:12;101481.06;;;17.65;60.51
64336;BME280;50672;53.362;-6.240;2023-04-05T11:50:40;101485.06;;;17.55;60.30
64336;BME280;50672;53.362;-6.240;2023-04-05T11:53:15;101480.78;;;17.46;60.57
64336;BME280;50672;53.362;-6.240;2023-04-05T11:55:44;101482.88;;;17.44;60.47
64336;BME280;50672;53.362;-6.240;2023-04-05T11:58:21;101472.81;;;17.23;60.78
64336;BME280;50672;53.362;-6.240;2023-04-05T12:00:59;101464.38;;;16.96;60.58
64336;BME280;50672;53.362;-6.240;2023-04-05T12:03:27;101465.44;;;16.73;61.10
64336;BME280;50672;53.362;-6.240;2023-04-05T12:05:57;101459.41;;;16.56;61.18
64336;BME280;50672;53.362;-6.240;2023-04-05T12:08:40;101466.00;;;16.40;61.56
64336;BME280;50672;53.362;-6.240;2023-04-05T12:11:09;101463.44;;;16.39;61.57
64336;BME280;50672;53.362;-6.240;2023-04-05T12:13:37;101462.47;;;16.47;62.02
64336;BME280;50672;53.362;-6.240;2023-04-05T12:16:06;101461.41;;;16.48;62.00
64336;BME280;50672;53.362;-6.240;2023-04-05T12:18:36;101466.72;;;16.49;62.08
64336;BME280;50672;53.362;-6.240;2023-04-05T12:21:07;101453.22;;;16.54;62.55
64336;BME280;50672;53.362;-6.240;2023-04-05T12:23:35;101450.69;;;16.53;62.39
64336;BME280;50672;53.362;-6.240;2023-04-05T12:26:05;101450.81;;;16.45;62.54
64336;BME280;50672;53.362;-6.240;2023-04-05T12:28:53;101448.47;;;16.42;62.80
64336;BME280;50672;53.362;-6.240;2023-04-05T12:31:36;101444.88;;;16.41;62.95
64336;BME280;50672;53.362;-6.240;2023-04-05T12:34:02;101443.63;;;16.44;63.17
64336;BME280;50672;53.362;-6.240;2023-04-05T12:36:30;101452.25;;;16.40;63.41
64336;BME280;50672;53.362;-6.240;2023-04-05T12:39:00;101439.31;;;16.34;62.97
64336;BME280;50672;53.362;-6.240;2023-04-05T12:41:28;101450.94;;;16.36;63.15
64336;BME280;50672;53.362;-6.240;2023-04-05T12:43:56;101438.13;;;16.44;63.22
64336;BME280;50672;53.362;-6.240;2023-04-05T12:46:46;101441.66;;;16.59;63.29
64336;BME280;50672;53.362;-6.240;2023-04-05T12:49:19;101445.09;;;16.68;63.39
64336;BME280;50672;53.362;-6.240;2023-04-05T12:51:46;101432.53;;;16.87;63.55
64336;BME280;50672;53.362;-6.240;2023-04-05T12:54:17;101432.03;;;16.98;63.42
64336;BME280;50672;53.362;-6.240;2023-04-05T12:56:50;101432.69;;;17.00;63.32
64336;BME280;50672;53.362;-6.240;2023-04-05T12:59:22;101432.41;;;16.88;63.07
64336;BME280;50672;53.362;-6.240;2023-04-05T13:01:49;101431.44;;;16.81;62.83
64336;BME280;50672;53.362;-6.240;2023-04-05T13:04:16;101441.13;;;16.77;63.02
64336;BME280;50672;53.362;-6.240;2023-04-05T13:06:44;101433.75;;;16.78;62.66
64336;BME280;50672;53.362;-6.240;2023-04-05T13:09:13;101431.56;;;16.66;62.71
64336;BME280;50672;53.362;-6.240;2023-04-05T13:11:40;101439.56;;;16.61;62.94
64336;BME280;50672;53.362;-6.240;2023-04-05T13:14:07;101437.41;;;16.56;63.06
64336;BME280;50672;53.362;-6.240;2023-04-05T13:16:34;101444.16;;;16.54;62.92
64336;BME280;50672;53.362;-6.240;2023-04-05T13:19:01;101448.97;;;16.52;62.90